sensor_id;sensor_type;location;lat;lon;timestamp;temperature;humidity
36458;DHT22;22480;50.546;12.292;2023-03-01T00:01:21;-6.50;99.90
36458;DHT22;22480;50.546;12.292;2023-03-01T00:03:47;-6.60;99.90
36458;DHT22;22480;50.546;12.292;2023-03-01T00:06:13;-6.80;99.90
36458;DHT22;22480;50.546;12.292;2023-03-01T00:08:39;-6.90;99.90
36458;DHT22;22480;50.546;12.292;2023-03-01T00:11:10;-6.90;99.90
36458;DHT22;22480;50.546;12.292;2023-03-01T00:13:36;-6.80;99.90
36458;DHT22;22480;50.546;12.292;2023-03-01T00:16:04;-6.70;99.90
36458;DHT22;22480;50.546;12.292;2023-03-01T00:18:31;-6.80;99.90
36458;DHT22;22480;50.546;12.292;2023-03-01T00:20:57;-6.90;99.90
36458;DHT22;22480;50.546;12.292;2023-03-01T00:23:23;-6.90;99.90
36458;DHT22;22480;50.546;12.292;2023-03-01T00:25:49;-6.90;99.90
36458;DHT22;22480;50.546;12.292;2023-03-01T00:28:15;-7.00;99.90
36458;DHT22;22480;50.546;12.292;2023-03-01T00:30:41;-6.90;99.90
36458;DHT22;22480;50.546;12.292;2023-03-01T00:33:07;-6.90;99.90
36458;DHT22;22480;50.546;12.292;2023-03-01T00:35:33;-7.10;99.90
36458;DHT22;22480;50.546;12.292;2023-03-01T00:38:00;-7.10;99.90
36458;DHT22;22480;50.546;12.292;2023-03-01T00:40:27;-7.00;99.90
36458;DHT22;22480;50.546;12.292;2023-03-01T00:42:54;-6.90;99.90
36458;DHT22;22480;50.546;12.292;2023-03-01T00:45:20;-6.90;99.90
36458;DHT22;22480;50.546;12.292;2023-03-01T00:47:46;-6.90;99.90
36458;DHT22;22480;50.546;12.292;2023-03-01T00:50:12;-6.70;99.90
36458;DHT22;22480;50.546;12.292;2023-03-01T00:52:37;-6.50;99.90
36458;DHT22;22480;50.546;12.292;2023-03-01T00:55:04;-6.50;99.90
36458;DHT22;22480;50.546;12.292;2023-03-01T00:57:30;-6.50;99.90
36458;DHT22;22480;50.546;12.292;2023-03-01T00:59:56;-6.50;99.90
36458;DHT22;22480;50.546;12.292;2023-03-01T01:02:22;-6.60;99.90
36458;DHT22;22480;50.546;12.292;2023-03-01T01:04:48;-6.60;99.90
36458;DHT22;22480;50.546;12.292;2023-03-01T01:07:14;-6.70;99.90
36458;DHT22;22480;50.546;12.292;2023-03-01T01:09:40;-6.80;99.90
36458;DHT22;22480;50.546;12.292;2023-03-01T01:12:06;-6.70;99.90
36458;DHT22;22480;50.546;12.292;2023-03-01T01:14:33;-6.90;99.90
36458;DHT22;22480;50.546;12.292;2023-03-01T01:16:59;-7.00;99.90
36458;DHT22;22480;50.546;12.292;2023-03-01T01:19:25;-7.00;99.90
36458;DHT22;22480;50.546;12.292;2023-03-01T01:21:51;-7.20;99.90
36458;DHT22;22480;50.546;12.292;2023-03-01T01:24:18;-7.30;99.90
36458;DHT22;22480;50.546;12.292;2023-03-01T01:26:44;-7.50;99.90
36458;DHT22;22480;50.546;12.292;2023-03-01T01:29:12;-7.60;99.90
36458;DHT22;22480;50.546;12.292;2023-03-01T01:31:39;-7.60;99.90
36458;DHT22;22480;50.546;12.292;2023-03-01T01:34:06;-7.60;99.90
36458;DHT22;22480;50.546;12.292;2023-03-01T01:36:32;-7.50;99.90
36458;DHT22;22480;50.546;12.292;2023-03-01T01:38:58;-7.30;99.90
36458;DHT22;22480;50.546;12.292;2023-03-01T01:41:25;-7.30;99.90
36458;DHT22;22480;50.546;12.292;2023-03-01T01:44:15;-7.30;99.90
36458;DHT22;22480;50.546;12.292;2023-03-01T01:46:49;-7.30;99.90
36458;DHT22;22480;50.546;12.292;2023-03-01T01:49:31;-7.40;99.90
36458;DHT22;22480;50.546;12.292;2023-03-01T01:55:15;-7.40;99.90
36458;DHT22;22480;50.546;12.292;2023-03-01T01:57:48;-7.30;99.90
36458;DHT22;22480;50.546;12.292;2023-03-01T02:00:20;-7.50;99.90
36458;DHT22;22480;50.546;12.292;2023-03-01T02:02:48;-7.70;99.90
36458;DHT22;22480;50.546;12.292;2023-03-01T02:08:13;-8.00;99.90
36458;DHT22;22480;50.546;12.292;2023-03-01T02:10:40;-8.10;99.90
36458;DHT22;22480;50.546;12.292;2023-03-01T02:13:06;-8.20;99.90
36458;DHT22;22480;50.546;12.292;2023-03-01T02:15:34;-8.30;99.90
36458;DHT22;22480;50.546;12.292;2023-03-01T02:18:01;-8.40;99.90
36458;DHT22;22480;50.546;12.292;2023-03-01T02:23:28;-8.50;99.90
36458;DHT22;22480;50.546;12.292;2023-03-01T02:28:45;-8.90;99.90
36458;DHT22;22480;50.546;12.292;2023-03-01T02:31:16;-8.90;99.90
36458;DHT22;22480;50.546;12.292;2023-03-01T02:34:02;-8.90;99.90
36458;DHT22;22480;50.546;12.292;2023-03-01T02:36:50;-8.90;99.90
36458;DHT22;22480;50.546;12.292;2023-03-01T02:39:23;-8.90;99.90
36458;DHT22;22480;50.546;12.292;2023-03-01T02:41:52;-9.00;99.90
36458;DHT22;22480;50.546;12.292;2023-03-01T02:44:18;-9.00;99.90
36458;DHT22;22480;50.546;12.292;2023-03-01T02:46:50;-8.90;99.90
36458;DHT22;22480;50.546;12.292;2023-03-01T02:49:32;-8.80;99.90
36458;DHT22;22480;50.546;12.292;2023-03-01T02:57:17;-8.20;99.90
36458;DHT22;22480;50.546;12.292;2023-03-01T02:59:44;-8.20;99.90
36458;DHT22;22480;50.546;12.292;2023-03-01T03:02:22;-8.00;99.90
36458;DHT22;22480;50.546;12.292;2023-03-01T03:05:09;-7.90;99.90
36458;DHT22;22480;50.546;12.292;2023-03-01T03:07:38;-7.60;99.90
36458;DHT22;22480;50.546;12.292;2023-03-01T03:10:06;-7.40;99.90
36458;DHT22;22480;50.546;12.292;2023-03-01T03:12:33;-7.20;99.90
36458;DHT22;22480;50.546;12.292;2023-03-01T03:14:59;-7.20;99.90
36458;DHT22;22480;50.546;12.292;2023-03-01T03:17:24;-7.20;99.90
36458;DHT22;22480;50.546;12.292;2023-03-01T03:19:50;-7.20;99.90
36458;DHT22;22480;50.546;12.292;2023-03-01T03:22:16;-7.20;99.90
36458;DHT22;22480;50.546;12.292;2023-03-01T03:24:42;-7.20;99.90
36458;DHT22;22480;50.546;12.292;2023-03-01T03:27:07;-7.30;99.90
36458;DHT22;22480;50.546;12.292;2023-03-01T03:29:33;-7.40;99.90
36458;DHT22;22480;50.546;12.292;2023-03-01T03:31:59;-7.40;99.90
36458;DHT22;22480;50.546;12.292;2023-03-01T03:34:25;-7.40;99.90
36458;DHT22;22480;50.546;12.292;2023-03-01T03:36:56;-7.40;99.90
36458;DHT22;22480;50.546;12.292;2023-03-01T03:39:26;-7.40;99.90
36458;DHT22;22480;50.546;12.292;2023-03-01T03:41:53;-7.30;99.90
36458;DHT22;22480;50.546;12.292;2023-03-01T03:44:19;-7.30;99.90
36458;DHT22;22480;50.546;12.292;2023-03-01T03:46:45;-7.20;99.90
36458;DHT22;22480;50.546;12.292;2023-03-01T03:49:11;-7.30;99.90
36458;DHT22;22480;50.546;12.292;2023-03-01T03:51:37;-7.30;99.90
36458;DHT22;22480;50.546;12.292;2023-03-01T03:54:02;-7.20;99.90
36458;DHT22;22480;50.546;12.292;2023-03-01T03:56:28;-7.20;99.90
36458;DHT22;22480;50.546;12.292;2023-03-01T03:58:54;-7.00;99.90
36458;DHT22;22480;50.546;12.292;2023-03-01T04:01:19;-7.00;99.90
36458;DHT22;22480;50.546;12.292;2023-03-01T04:03:45;-7.00;99.90
36458;DHT22;22480;50.546;12.292;2023-03-01T04:06:14;-7.10;99.90
36458;DHT22;22480;50.546;12.292;2023-03-01T04:08:40;-7.20;99.90
36458;DHT22;22480;50.546;12.292;2023-03-01T04:11:06;-7.30;99.90
36458;DHT22;22480;50.546;12.292;2023-03-01T04:13:55;-7.40;99.90
36458;DHT22;22480;50.546;12.292;2023-03-01T04:16:22;-7.40;99.90
36458;DHT22;22480;50.546;12.292;2023-03-01T04:18:47;-7.50;99.90
36458;DHT22;22480;50.546;12.292;2023-03-01T04:21:13;-7.40;99.90
36458;DHT22;22480;50.546;12.292;2023-03-01T04:23:40;-7.40;99.90
36458;DHT22;22480;50.546;12.292;2023-03-01T04:26:06;-7.30;99.90
36458;DHT22;22480;50.546;12.292;2023-03-01T04:28:37;-7.20;99.90
36458;DHT22;22480;50.546;12.292;2023-03-01T04:31:13;-7.30;99.90
36458;DHT22;22480;50.546;12.292;2023-03-01T04:33:51;-7.40;99.90
36458;DHT22;22480;50.546;12.292;2023-03-01T04:36:19;-7.50;99.90
36458;DHT22;22480;50.546;12.292;2023-03-01T04:38:45;-7.60;99.90
36458;DHT22;22480;50.546;12.292;2023-03-01T04:41:16;-7.80;99.90
36458;DHT22;22480;50.546;12.292;2023-03-01T04:43:42;-8.00;99.90
36458;DHT22;22480;50.546;12.292;2023-03-01T04:46:11;-8.00;99.90
36458;DHT22;22480;50.546;12.292;2023-03-01T04:48:38;-8.20;99.90
36458;DHT22;22480;50.546;12.292;2023-03-01T04:51:05;-8.30;99.90
36458;DHT22;22480;50.546;12.292;2023-03-01T04:53:32;-8.30;99.90
36458;DHT22;22480;50.546;12.292;2023-03-01T04:55:58;-8.30;99.90
36458;DHT22;22480;50.546;12.292;2023-03-01T04:58:26;-8.40;99.90
36458;DHT22;22480;50.546;12.292;2023-03-01T05:00:53;-8.50;99.90
36458;DHT22;22480;50.546;12.292;2023-03-01T05:03:19;-8.60;99.90
36458;DHT22;22480;50.546;12.292;2023-03-01T05:05:47;-8.90;99.90
36458;DHT22;22480;50.546;12.292;2023-03-01T05:08:13;-9.20;99.90
36458;DHT22;22480;50.546;12.292;2023-03-01T05:10:50;-9.30;99.90
36458;DHT22;22480;50.546;12.292;2023-03-01T05:13:17;-9.40;99.90
36458;DHT22;22480;50.546;12.292;2023-03-01T05:15:58;-9.40;99.90
36458;DHT22;22480;50.546;12.292;2023-03-01T05:18:25;-9.10;99.90
36458;DHT22;22480;50.546;12.292;2023-03-01T05:20:55;-9.10;99.90
36458;DHT22;22480;50.546;12.292;2023-03-01T05:23:22;-9.20;99.90
36458;DHT22;22480;50.546;12.292;2023-03-01T05:25:48;-9.20;99.90
36458;DHT22;22480;50.546;12.292;2023-03-01T05:28:14;-9.20;99.90
36458;DHT22;22480;50.546;12.292;2023-03-01T05:30:40;-9.20;99.90
36458;DHT22;22480;50.546;12.292;2023-03-01T05:33:07;-9.20;99.90
36458;DHT22;22480;50.546;12.292;2023-03-01T05:35:42;-9.20;99.90
36458;DHT22;22480;50.546;12.292;2023-03-01T05:38:08;-9.20;99.90
36458;DHT22;22480;50.546;12.292;2023-03-01T05:40:34;-9.30;99.90
36458;DHT22;22480;50.546;12.292;2023-03-01T05:43:00;-9.40;99.90
36458;DHT22;22480;50.546;12.292;2023-03-01T05:45:27;-9.50;99.90
36458;DHT22;22480;50.546;12.292;2023-03-01T05:47:53;-9.60;99.90
36458;DHT22;22480;50.546;12.292;2023-03-01T05:50:25;-9.70;99.90
36458;DHT22;22480;50.546;12.292;2023-03-01T05:52:56;-9.50;99.90
36458;DHT22;22480;50.546;12.292;2023-03-01T05:55:23;-9.20;99.90
36458;DHT22;22480;50.546;12.292;2023-03-01T05:57:48;-9.20;99.90
36458;DHT22;22480;50.546;12.292;2023-03-01T06:00:17;-9.20;99.90
36458;DHT22;22480;50.546;12.292;2023-03-01T06:02:43;-9.20;99.90
36458;DHT22;22480;50.546;12.292;2023-03-01T06:05:13;-9.10;99.90
36458;DHT22;22480;50.546;12.292;2023-03-01T06:07:39;-9.00;99.90
36458;DHT22;22480;50.546;12.292;2023-03-01T06:10:06;-8.80;99.90
36458;DHT22;22480;50.546;12.292;2023-03-01T06:12:36;-8.70;99.90
36458;DHT22;22480;50.546;12.292;2023-03-01T06:15:04;-8.80;99.90
36458;DHT22;22480;50.546;12.292;2023-03-01T06:17:32;-8.80;99.90
36458;DHT22;22480;50.546;12.292;2023-03-01T06:19:58;-8.70;99.90
36458;DHT22;22480;50.546;12.292;2023-03-01T06:22:24;-8.60;99.90
36458;DHT22;22480;50.546;12.292;2023-03-01T06:24:50;-8.70;99.90
36458;DHT22;22480;50.546;12.292;2023-03-01T06:27:15;-8.70;99.90
36458;DHT22;22480;50.546;12.292;2023-03-01T06:29:41;-8.70;99.90
36458;DHT22;22480;50.546;12.292;2023-03-01T06:32:07;-8.80;99.90
36458;DHT22;22480;50.546;12.292;2023-03-01T06:34:33;-8.80;99.90
36458;DHT22;22480;50.546;12.292;2023-03-01T06:36:59;-8.80;99.90
36458;DHT22;22480;50.546;12.292;2023-03-01T06:39:25;-8.80;99.90
36458;DHT22;22480;50.546;12.292;2023-03-01T06:41:52;-8.70;99.90
36458;DHT22;22480;50.546;12.292;2023-03-01T06:44:18;-8.60;99.90
36458;DHT22;22480;50.546;12.292;2023-03-01T06:46:44;-8.50;99.90
36458;DHT22;22480;50.546;12.292;2023-03-01T06:49:09;-8.20;99.90
36458;DHT22;22480;50.546;12.292;2023-03-01T06:51:36;-7.90;99.90
36458;DHT22;22480;50.546;12.292;2023-03-01T06:54:03;-7.50;99.90
36458;DHT22;22480;50.546;12.292;2023-03-01T06:56:29;-7.10;99.90
36458;DHT22;22480;50.546;12.292;2023-03-01T06:58:55;-6.60;99.90
36458;DHT22;22480;50.546;12.292;2023-03-01T07:01:21;-6.30;99.90
36458;DHT22;22480;50.546;12.292;2023-03-01T07:03:46;-6.10;99.90
36458;DHT22;22480;50.546;12.292;2023-03-01T07:06:12;-6.00;99.90
36458;DHT22;22480;50.546;12.292;2023-03-01T07:08:38;-5.90;99.90
36458;DHT22;22480;50.546;12.292;2023-03-01T07:11:04;-5.80;99.90
36458;DHT22;22480;50.546;12.292;2023-03-01T07:13:31;-5.90;99.90
36458;DHT22;22480;50.546;12.292;2023-03-01T07:15:57;-5.90;99.90
36458;DHT22;22480;50.546;12.292;2023-03-01T07:18:23;-6.00;99.90
36458;DHT22;22480;50.546;12.292;2023-03-01T07:20:49;-6.10;99.90
36458;DHT22;22480;50.546;12.292;2023-03-01T07:23:15;-6.20;99.90
36458;DHT22;22480;50.546;12.292;2023-03-01T07:25:41;-6.30;99.90
36458;DHT22;22480;50.546;12.292;2023-03-01T07:28:06;-6.30;99.90
36458;DHT22;22480;50.546;12.292;2023-03-01T07:30:32;-6.30;99.90
36458;DHT22;22480;50.546;12.292;2023-03-01T07:32:58;-6.30;99.90
36458;DHT22;22480;50.546;12.292;2023-03-01T07:35:26;-6.30;99.90
36458;DHT22;22480;50.546;12.292;2023-03-01T07:37:52;-6.20;99.90
36458;DHT22;22480;50.546;12.292;2023-03-01T07:40:18;-6.10;99.90
36458;DHT22;22480;50.546;12.292;2023-03-01T07:42:45;-6.00;99.90
36458;DHT22;22480;50.546;12.292;2023-03-01T07:45:11;-6.00;99.90
36458;DHT22;22480;50.546;12.292;2023-03-01T07:47:37;-5.80;99.90
36458;DHT22;22480;50.546;12.292;2023-03-01T07:50:03;-5.70;99.90
36458;DHT22;22480;50.546;12.292;2023-03-01T07:52:29;-5.70;99.90
36458;DHT22;22480;50.546;12.292;2023-03-01T07:54:56;-5.70;99.90
36458;DHT22;22480;50.546;12.292;2023-03-01T07:57:22;-5.60;99.90
36458;DHT22;22480;50.546;12.292;2023-03-01T07:59:48;-5.60;99.90
36458;DHT22;22480;50.546;12.292;2023-03-01T08:02:14;-5.50;99.90
36458;DHT22;22480;50.546;12.292;2023-03-01T08:04:41;-5.40;99.90
36458;DHT22;22480;50.546;12.292;2023-03-01T08:07:07;-5.40;99.90
36458;DHT22;22480;50.546;12.292;2023-03-01T08:09:35;-5.20;99.90
36458;DHT22;22480;50.546;12.292;2023-03-01T08:12:01;-5.10;99.90
36458;DHT22;22480;50.546;12.292;2023-03-01T08:14:27;-5.00;99.90
36458;DHT22;22480;50.546;12.292;2023-03-01T08:16:52;-4.80;99.90
36458;DHT22;22480;50.546;12.292;2023-03-01T08:19:18;-4.80;99.90
36458;DHT22;22480;50.546;12.292;2023-03-01T08:21:44;-4.70;99.90
36458;DHT22;22480;50.546;12.292;2023-03-01T08:24:10;-4.70;99.90
36458;DHT22;22480;50.546;12.292;2023-03-01T08:26:36;-4.60;99.90
36458;DHT22;22480;50.546;12.292;2023-03-01T08:29:02;-4.50;99.90
36458;DHT22;22480;50.546;12.292;2023-03-01T08:33:57;-4.30;99.90
36458;DHT22;22480;50.546;12.292;2023-03-01T08:36:25;-4.20;99.90
36458;DHT22;22480;50.546;12.292;2023-03-01T08:38:51;-4.10;99.90
36458;DHT22;22480;50.546;12.292;2023-03-01T08:41:17;-4.00;99.90
36458;DHT22;22480;50.546;12.292;2023-03-01T08:43:43;-4.00;99.90
36458;DHT22;22480;50.546;12.292;2023-03-01T08:46:09;-3.90;99.90
36458;DHT22;22480;50.546;12.292;2023-03-01T08:48:35;-3.80;99.90
36458;DHT22;22480;50.546;12.292;2023-03-01T08:51:17;-3.70;99.90
36458;DHT22;22480;50.546;12.292;2023-03-01T08:53:44;-3.60;99.90
36458;DHT22;22480;50.546;12.292;2023-03-01T08:56:10;-3.60;99.90
36458;DHT22;22480;50.546;12.292;2023-03-01T08:58:36;-3.60;99.90
36458;DHT22;22480;50.546;12.292;2023-03-01T09:01:10;-3.50;99.90
36458;DHT22;22480;50.546;12.292;2023-03-01T09:03:36;-3.40;99.90
36458;DHT22;22480;50.546;12.292;2023-03-01T09:06:02;-3.40;99.90
36458;DHT22;22480;50.546;12.292;2023-03-01T09:08:28;-3.20;99.90
36458;DHT22;22480;50.546;12.292;2023-03-01T09:10:54;-3.20;99.90
36458;DHT22;22480;50.546;12.292;2023-03-01T09:13:20;-3.10;99.90
36458;DHT22;22480;50.546;12.292;2023-03-01T09:15:46;-3.10;99.90
36458;DHT22;22480;50.546;12.292;2023-03-01T09:18:11;-3.10;99.90
36458;DHT22;22480;50.546;12.292;2023-03-01T09:20:37;-3.00;99.90
36458;DHT22;22480;50.546;12.292;2023-03-01T09:23:03;-3.00;99.90
36458;DHT22;22480;50.546;12.292;2023-03-01T09:25:28;-2.80;99.90
36458;DHT22;22480;50.546;12.292;2023-03-01T09:27:54;-2.30;99.90
36458;DHT22;22480;50.546;12.292;2023-03-01T09:30:21;-1.40;99.90
36458;DHT22;22480;50.546;12.292;2023-03-01T09:32:46;-0.40;99.90
36458;DHT22;22480;50.546;12.292;2023-03-01T09:35:12;0.40;99.90
36458;DHT22;22480;50.546;12.292;2023-03-01T09:37:38;0.90;99.90
36458;DHT22;22480;50.546;12.292;2023-03-01T09:40:18;1.50;99.90
36458;DHT22;22480;50.546;12.292;2023-03-01T09:43:12;2.50;99.90
36458;DHT22;22480;50.546;12.292;2023-03-01T09:45:43;3.30;99.90
36458;DHT22;22480;50.546;12.292;2023-03-01T09:48:21;3.70;99.90
36458;DHT22;22480;50.546;12.292;2023-03-01T09:50:49;4.40;99.90
36458;DHT22;22480;50.546;12.292;2023-03-01T09:53:21;5.00;99.90
36458;DHT22;22480;50.546;12.292;2023-03-01T09:58:59;5.50;99.90
36458;DHT22;22480;50.546;12.292;2023-03-01T10:01:29;5.80;99.90
36458;DHT22;22480;50.546;12.292;2023-03-01T10:07:15;5.70;99.90
36458;DHT22;22480;50.546;12.292;2023-03-01T10:09:38;5.30;99.90
36458;DHT22;22480;50.546;12.292;2023-03-01T10:12:18;6.00;99.90
36458;DHT22;22480;50.546;12.292;2023-03-01T10:17:57;6.50;89.80
36458;DHT22;22480;50.546;12.292;2023-03-01T10:20:26;6.10;98.80
36458;DHT22;22480;50.546;12.292;2023-03-01T10:22:54;6.30;93.20
36458;DHT22;22480;50.546;12.292;2023-03-01T10:25:52;6.20;95.40
36458;DHT22;22480;50.546;12.292;2023-03-01T10:30:51;7.70;99.50
36458;DHT22;22480;50.546;12.292;2023-03-01T10:33:23;8.10;88.10
36458;DHT22;22480;50.546;12.292;2023-03-01T10:35:49;8.30;77.90
36458;DHT22;22480;50.546;12.292;2023-03-01T10:38:16;8.20;85.10
36458;DHT22;22480;50.546;12.292;2023-03-01T10:40:56;8.30;72.70
36458;DHT22;22480;50.546;12.292;2023-03-01T10:43:24;7.90;81.10
36458;DHT22;22480;50.546;12.292;2023-03-01T10:45:50;8.20;75.40
36458;DHT22;22480;50.546;12.292;2023-03-01T10:48:18;8.40;78.10
36458;DHT22;22480;50.546;12.292;2023-03-01T10:50:49;8.50;90.40
36458;DHT22;22480;50.546;12.292;2023-03-01T10:53:28;9.00;73.10
36458;DHT22;22480;50.546;12.292;2023-03-01T10:56:00;8.90;72.70
36458;DHT22;22480;50.546;12.292;2023-03-01T10:58:28;9.50;69.50
36458;DHT22;22480;50.546;12.292;2023-03-01T11:08:41;10.50;70.30
36458;DHT22;22480;50.546;12.292;2023-03-01T11:11:32;10.80;63.80
36458;DHT22;22480;50.546;12.292;2023-03-01T11:14:06;10.30;74.00
36458;DHT22;22480;50.546;12.292;2023-03-01T11:16:34;9.90;62.70
36458;DHT22;22480;50.546;12.292;2023-03-01T11:19:20;9.70;64.10
36458;DHT22;22480;50.546;12.292;2023-03-01T11:22:07;9.70;65.20
36458;DHT22;22480;50.546;12.292;2023-03-01T11:24:53;10.40;67.80
36458;DHT22;22480;50.546;12.292;2023-03-01T11:27:22;10.50;61.20
36458;DHT22;22480;50.546;12.292;2023-03-01T11:30:35;11.20;69.50
36458;DHT22;22480;50.546;12.292;2023-03-01T11:36:03;11.00;59.50
36458;DHT22;22480;50.546;12.292;2023-03-01T11:38:34;11.00;65.80
36458;DHT22;22480;50.546;12.292;2023-03-01T11:43:41;11.00;59.30
36458;DHT22;22480;50.546;12.292;2023-03-01T11:52:02;10.00;64.30
36458;DHT22;22480;50.546;12.292;2023-03-01T11:57:37;9.70;67.20
36458;DHT22;22480;50.546;12.292;2023-03-01T12:05:40;12.50;66.80
36458;DHT22;22480;50.546;12.292;2023-03-01T12:08:48;12.30;56.50
36458;DHT22;22480;50.546;12.292;2023-03-01T12:16:59;10.50;60.20
36458;DHT22;22480;50.546;12.292;2023-03-01T12:19:46;8.90;64.00
36458;DHT22;22480;50.546;12.292;2023-03-01T12:41:29;11.10;63.60
36458;DHT22;22480;50.546;12.292;2023-03-01T12:44:20;10.70;64.40
36458;DHT22;22480;50.546;12.292;2023-03-01T12:49:51;10.90;63.20
36458;DHT22;22480;50.546;12.292;2023-03-01T12:54:55;10.60;65.20
36458;DHT22;22480;50.546;12.292;2023-03-01T12:57:33;10.50;61.40
36458;DHT22;22480;50.546;12.292;2023-03-01T13:00:36;10.10;62.80
36458;DHT22;22480;50.546;12.292;2023-03-01T13:03:24;10.20;64.80
36458;DHT22;22480;50.546;12.292;2023-03-01T13:09:00;10.20;67.00
36458;DHT22;22480;50.546;12.292;2023-03-01T13:11:29;9.90;66.90
36458;DHT22;22480;50.546;12.292;2023-03-01T13:16:46;10.00;67.30
36458;DHT22;22480;50.546;12.292;2023-03-01T13:19:20;10.20;64.60
36458;DHT22;22480;50.546;12.292;2023-03-01T13:21:48;9.90;65.30
36458;DHT22;22480;50.546;12.292;2023-03-01T13:27:10;9.80;67.00
36458;DHT22;22480;50.546;12.292;2023-03-01T13:29:47;9.90;67.80
36458;DHT22;22480;50.546;12.292;2023-03-01T13:32:26;9.70;67.10
36458;DHT22;22480;50.546;12.292;2023-03-01T13:37:44;10.60;66.50
36458;DHT22;22480;50.546;12.292;2023-03-01T13:42:56;10.00;62.80
36458;DHT22;22480;50.546;12.292;2023-03-01T13:45:41;10.00;64.10
36458;DHT22;22480;50.546;12.292;2023-03-01T13:48:23;9.70;64.80
36458;DHT22;22480;50.546;12.292;2023-03-01T13:50:55;9.90;66.90
36458;DHT22;22480;50.546;12.292;2023-03-01T13:53:25;9.60;64.80
36458;DHT22;22480;50.546;12.292;2023-03-01T13:55:55;9.90;66.60
36458;DHT22;22480;50.546;12.292;2023-03-01T13:58:26;10.10;64.30
36458;DHT22;22480;50.546;12.292;2023-03-01T14:01:01;10.20;64.00
36458;DHT22;22480;50.546;12.292;2023-03-01T14:03:28;9.50;67.30
36458;DHT22;22480;50.546;12.292;2023-03-01T14:06:03;9.90;65.30
36458;DHT22;22480;50.546;12.292;2023-03-01T14:08:33;9.90;68.80
36458;DHT22;22480;50.546;12.292;2023-03-01T14:17:07;9.40;65.40
36458;DHT22;22480;50.546;12.292;2023-03-01T14:19:38;9.30;66.40
36458;DHT22;22480;50.546;12.292;2023-03-01T14:24:47;8.40;70.00
36458;DHT22;22480;50.546;12.292;2023-03-01T14:27:15;8.80;69.00
36458;DHT22;22480;50.546;12.292;2023-03-01T14:29:41;9.00;69.90
36458;DHT22;22480;50.546;12.292;2023-03-01T14:32:19;9.10;67.60
36458;DHT22;22480;50.546;12.292;2023-03-01T14:34:47;9.30;66.80
36458;DHT22;22480;50.546;12.292;2023-03-01T14:37:26;9.10;68.10
36458;DHT22;22480;50.546;12.292;2023-03-01T14:39:53;9.00;67.10
36458;DHT22;22480;50.546;12.292;2023-03-01T14:42:21;9.00;71.50
36458;DHT22;22480;50.546;12.292;2023-03-01T14:44:50;9.20;68.50
36458;DHT22;22480;50.546;12.292;2023-03-01T14:47:27;9.60;68.30
36458;DHT22;22480;50.546;12.292;2023-03-01T14:50:15;10.00;66.80
36458;DHT22;22480;50.546;12.292;2023-03-01T14:52:46;10.50;63.10
36458;DHT22;22480;50.546;12.292;2023-03-01T14:55:27;10.70;63.20
36458;DHT22;22480;50.546;12.292;2023-03-01T14:57:54;10.40;61.80
36458;DHT22;22480;50.546;12.292;2023-03-01T15:00:26;10.30;63.30
36458;DHT22;22480;50.546;12.292;2023-03-01T15:02:54;10.80;63.30
36458;DHT22;22480;50.546;12.292;2023-03-01T15:05:32;10.80;62.50
36458;DHT22;22480;50.546;12.292;2023-03-01T15:08:01;10.20;62.40
36458;DHT22;22480;50.546;12.292;2023-03-01T15:10:35;9.70;63.90
36458;DHT22;22480;50.546;12.292;2023-03-01T15:13:21;9.30;65.60
36458;DHT22;22480;50.546;12.292;2023-03-01T15:15:47;9.00;66.90
36458;DHT22;22480;50.546;12.292;2023-03-01T15:18:21;8.60;68.20
36458;DHT22;22480;50.546;12.292;2023-03-01T15:20:48;8.00;70.80
36458;DHT22;22480;50.546;12.292;2023-03-01T15:23:29;7.70;74.40
36458;DHT22;22480;50.546;12.292;2023-03-01T15:25:56;7.20;79.60
36458;DHT22;22480;50.546;12.292;2023-03-01T15:28:29;7.10;82.90
36458;DHT22;22480;50.546;12.292;2023-03-01T15:31:05;7.30;80.10
36458;DHT22;22480;50.546;12.292;2023-03-01T15:33:37;7.30;76.20
36458;DHT22;22480;50.546;12.292;2023-03-01T15:36:31;7.10;81.90
36458;DHT22;22480;50.546;12.292;2023-03-01T15:38:59;6.80;82.90
36458;DHT22;22480;50.546;12.292;2023-03-01T15:41:28;6.90;82.70
36458;DHT22;22480;50.546;12.292;2023-03-01T15:43:57;7.00;84.00
36458;DHT22;22480;50.546;12.292;2023-03-01T15:46:31;7.00;81.00
36458;DHT22;22480;50.546;12.292;2023-03-01T15:49:03;7.00;82.50
36458;DHT22;22480;50.546;12.292;2023-03-01T15:53:56;6.50;85.20
36458;DHT22;22480;50.546;12.292;2023-03-01T15:56:23;6.30;86.10
36458;DHT22;22480;50.546;12.292;2023-03-01T15:58:49;6.10;90.70
36458;DHT22;22480;50.546;12.292;2023-03-01T16:01:17;5.90;92.30
36458;DHT22;22480;50.546;12.292;2023-03-01T16:03:43;5.90;93.20
36458;DHT22;22480;50.546;12.292;2023-03-01T16:06:10;5.80;95.30
36458;DHT22;22480;50.546;12.292;2023-03-01T16:08:37;5.70;95.50
36458;DHT22;22480;50.546;12.292;2023-03-01T16:11:09;5.70;95.40
36458;DHT22;22480;50.546;12.292;2023-03-01T16:13:36;5.50;97.10
36458;DHT22;22480;50.546;12.292;2023-03-01T16:16:02;5.40;98.30
36458;DHT22;22480;50.546;12.292;2023-03-01T16:18:28;5.20;98.00
36458;DHT22;22480;50.546;12.292;2023-03-01T16:20:54;5.00;99.00
36458;DHT22;22480;50.546;12.292;2023-03-01T16:23:19;4.80;99.90
36458;DHT22;22480;50.546;12.292;2023-03-01T16:25:46;4.60;99.90
36458;DHT22;22480;50.546;12.292;2023-03-01T16:28:12;4.30;99.90
36458;DHT22;22480;50.546;12.292;2023-03-01T16:30:39;3.80;99.90
36458;DHT22;22480;50.546;12.292;2023-03-01T16:33:05;3.40;99.90
36458;DHT22;22480;50.546;12.292;2023-03-01T16:35:33;2.80;99.90
36458;DHT22;22480;50.546;12.292;2023-03-01T16:38:04;2.20;99.90
36458;DHT22;22480;50.546;12.292;2023-03-01T16:40:30;1.70;99.90
36458;DHT22;22480;50.546;12.292;2023-03-01T16:42:56;1.40;99.90
36458;DHT22;22480;50.546;12.292;2023-03-01T16:45:25;1.10;99.90
36458;DHT22;22480;50.546;12.292;2023-03-01T16:47:52;0.80;99.90
36458;DHT22;22480;50.546;12.292;2023-03-01T16:50:18;0.60;99.90
36458;DHT22;22480;50.546;12.292;2023-03-01T16:52:44;0.50;99.90
36458;DHT22;22480;50.546;12.292;2023-03-01T16:55:10;0.40;99.90
36458;DHT22;22480;50.546;12.292;2023-03-01T16:57:38;0.20;99.90
36458;DHT22;22480;50.546;12.292;2023-03-01T17:00:06;0.10;99.90
36458;DHT22;22480;50.546;12.292;2023-03-01T17:02:34;0.00;99.90
36458;DHT22;22480;50.546;12.292;2023-03-01T17:04:59;-0.10;99.90
36458;DHT22;22480;50.546;12.292;2023-03-01T17:07:25;-0.10;99.90
36458;DHT22;22480;50.546;12.292;2023-03-01T17:09:51;-0.20;99.90
36458;DHT22;22480;50.546;12.292;2023-03-01T17:12:16;-0.20;99.90
36458;DHT22;22480;50.546;12.292;2023-03-01T17:14:42;-0.30;99.90
36458;DHT22;22480;50.546;12.292;2023-03-01T17:17:09;-0.40;99.90
36458;DHT22;22480;50.546;12.292;2023-03-01T17:19:35;-0.50;99.90
36458;DHT22;22480;50.546;12.292;2023-03-01T17:22:05;-0.50;99.90
36458;DHT22;22480;50.546;12.292;2023-03-01T17:24:35;-0.50;99.90
36458;DHT22;22480;50.546;12.292;2023-03-01T17:27:02;-0.60;99.90
36458;DHT22;22480;50.546;12.292;2023-03-01T17:29:28;-0.60;99.90